Time;durP1;ratioP1;P1;durP2;ratioP2;P2;SDS_P1;SDS_P2;PMS_P1;PMS_P2;Temp;Humidity;BMP_temperature;BMP_pressure;BME280_temperature;BME280_humidity;BME280_pressure;Samples;Min_cycle;Max_cycle;Signal;HPM_P1;HPM_P2
2023/09/10 00:01:38;;;;;;;58.10;4.10;;;;;;;;;;4933829;29;20461;-73
2023/09/10 00:04:06;;;;;;;58.17;3.60;;;;;;;;;;4938119;29;20463;-72
2023/09/10 00:06:33;;;;;;;57.50;3.27;;;;;;;;;;4938770;28;20473;-73
2023/09/10 00:09:00;;;;;;;59.00;3.70;;;;;;;;;;4933435;29;20461;-72
2023/09/10 00:11:27;;;;;;;60.47;5.13;;;;;;;;;;4933440;29;20456;-73
2023/09/10 00:13:54;;;;;;;62.43;5.70;;;;;;;;;;4933496;29;20500;-73
2023/09/10 00:16:23;;;;;;;58.40;4.67;;;;;;;;;;4933002;29;20474;-73
2023/09/10 00:18:50;;;;;;;57.40;3.47;;;;;;;;;;4933413;29;20781;-73
2023/09/10 00:21:17;;;;;;;57.17;3.23;;;;;;;;;;4933664;29;20450;-72
2023/09/10 00:23:44;;;;;;;58.20;4.07;;;;;;;;;;4934955;29;20452;-73
2023/09/10 00:26:11;;;;;;;58.93;3.57;;;;;;;;;;4936413;29;20849;-72
2023/09/10 00:28:38;;;;;;;59.63;4.50;;;;;;;;;;4936823;29;20476;-72
2023/09/10 00:31:05;;;;;;;69.00;4.80;;;;;;;;;;4936478;29;20450;-72
2023/09/10 00:33:33;;;;;;;58.03;3.40;;;;;;;;;;4936712;29;20854;-73
2023/09/10 00:36:00;;;;;;;57.67;3.40;;;;;;;;;;4936328;29;20476;-73
2023/09/10 00:38:27;;;;;;;57.70;3.60;;;;;;;;;;4941328;29;20906;-72
2023/09/10 00:40:54;;;;;;;59.27;6.20;;;;;;;;;;4955590;28;20460;-72
2023/09/10 00:43:21;;;;;;;57.00;3.20;;;;;;;;;;4955621;28;20453;-72
2023/09/10 00:45:49;;;;;;;59.50;4.00;;;;;;;;;;4955197;28;20453;-72
2023/09/10 00:48:16;;;;;;;58.87;3.60;;;;;;;;;;4955349;28;20449;-72
2023/09/10 00:50:44;;;;;;;58.73;4.40;;;;;;;;;;4955576;28;20453;-71
2023/09/10 00:53:12;;;;;;;58.47;3.70;;;;;;;;;;4955225;28;20500;-72
2023/09/10 00:55:39;;;;;;;57.47;3.47;;;;;;;;;;4954858;28;20449;-72
2023/09/10 00:58:06;;;;;;;58.10;3.33;;;;;;;;;;4955245;28;20471;-73
2023/09/10 01:00:34;;;;;;;57.20;3.10;;;;;;;;;;4955206;28;20453;-71
2023/09/10 01:03:01;;;;;;;57.60;3.20;;;;;;;;;;4955499;28;20457;-71
2023/09/10 01:05:29;;;;;;;57.40;3.03;;;;;;;;;;4955091;28;20493;-73
2023/09/10 01:07:58;;;;;;;57.50;3.57;;;;;;;;;;4955117;28;20468;-72
2023/09/10 01:10:27;;;;;;;57.87;3.40;;;;;;;;;;4955022;28;20441;-72
2023/09/10 01:12:56;;;;;;;57.13;3.27;;;;;;;;;;4947181;28;20505;-72
2023/09/10 01:15:27;;;;;;;58.03;3.63;;;;;;;;;;4954739;28;20937;-71
2023/09/10 01:17:58;;;;;;;57.57;3.07;;;;;;;;;;4954608;28;20495;-71
2023/09/10 01:20:32;;;;;;;57.20;3.00;;;;;;;;;;4955175;28;20457;-72
2023/09/10 01:23:04;;;;;;;57.10;2.90;;;;;;;;;;4954690;28;20457;-72
2023/09/10 01:25:34;;;;;;;57.33;3.33;;;;;;;;;;4954467;28;20475;-72
2023/09/10 01:28:04;;;;;;;57.50;3.47;;;;;;;;;;4954984;28;20474;-72
2023/09/10 01:30:31;;;;;;;58.00;4.90;;;;;;;;;;4955022;28;20461;-72
2023/09/10 01:33:00;;;;;;;57.40;3.23;;;;;;;;;;4954829;28;20491;-72
2023/09/10 01:35:34;;;;;;;57.27;3.30;;;;;;;;;;4953442;28;20952;-72
2023/09/10 01:38:03;;;;;;;58.57;3.60;;;;;;;;;;4954577;28;20937;-72
2023/09/10 01:40:33;;;;;;;57.47;3.37;;;;;;;;;;4949525;28;20473;-71
2023/09/10 01:43:05;;;;;;;57.20;3.20;;;;;;;;;;4936434;29;21002;-72
2023/09/10 01:45:33;;;;;;;57.57;3.00;;;;;;;;;;4946986;29;20536;-71
2023/09/10 01:48:01;;;;;;;57.50;2.70;;;;;;;;;;4945900;28;20460;-71
2023/09/10 01:50:29;;;;;;;64.77;3.73;;;;;;;;;;4947792;29;20588;-72
2023/09/10 01:52:57;;;;;;;58.20;4.23;;;;;;;;;;4946533;28;20893;-71
2023/09/10 01:55:25;;;;;;;57.67;3.53;;;;;;;;;;4935237;29;20458;-71
2023/09/10 01:57:54;;;;;;;58.97;3.57;;;;;;;;;;4935168;29;20480;-72
2023/09/10 02:00:22;;;;;;;58.20;3.57;;;;;;;;;;4946432;29;20962;-72
2023/09/10 02:02:49;;;;;;;57.30;3.90;;;;;;;;;;4954831;28;20449;-72
2023/09/10 02:05:17;;;;;;;57.37;2.90;;;;;;;;;;4954453;28;20461;-70
2023/09/10 02:07:44;;;;;;;60.40;5.23;;;;;;;;;;4954165;28;20519;-72
2023/09/10 02:10:11;;;;;;;58.07;3.73;;;;;;;;;;4938894;28;20453;-71
2023/09/10 02:12:38;;;;;;;58.47;3.90;;;;;;;;;;4940738;28;20501;-72
2023/09/10 02:15:07;;;;;;;57.40;3.40;;;;;;;;;;4934770;29;20985;-72
2023/09/10 02:17:36;;;;;;;60.47;3.90;;;;;;;;;;4935161;29;20478;-71
2023/09/10 02:20:09;;;;;;;58.57;4.40;;;;;;;;;;4935430;29;20453;-71
2023/09/10 02:25:39;;;;;;;57.33;2.90;;;;;;;;;;4943535;29;20537;-72
2023/09/10 02:28:07;;;;;;;57.50;4.03;;;;;;;;;;4942538;29;20885;-71
2023/09/10 02:30:34;;;;;;;57.57;3.20;;;;;;;;;;4934888;29;20449;-72
2023/09/10 02:33:02;;;;;;;57.20;2.80;;;;;;;;;;4936093;29;20489;-72
2023/09/10 02:35:29;;;;;;;57.17;3.03;;;;;;;;;;4949443;28;20454;-70
2023/09/10 02:37:56;;;;;;;57.60;3.70;;;;;;;;;;4942463;29;20572;-72
2023/09/10 02:40:23;;;;;;;58.90;3.63;;;;;;;;;;4942296;29;20958;-72
2023/09/10 02:42:50;;;;;;;58.70;4.10;;;;;;;;;;4934348;29;20469;-72
2023/09/10 02:45:17;;;;;;;57.20;2.90;;;;;;;;;;4934152;29;20830;-72
2023/09/10 02:47:44;;;;;;;58.73;3.80;;;;;;;;;;4934188;29;20479;-72
2023/09/10 02:50:13;;;;;;;57.60;3.93;;;;;;;;;;4943052;29;20459;-72
2023/09/10 02:52:40;;;;;;;57.00;3.10;;;;;;;;;;4939541;29;20933;-72
2023/09/10 02:55:08;;;;;;;57.67;3.47;;;;;;;;;;4943947;28;20458;-72
2023/09/10 02:57:35;;;;;;;58.10;4.50;;;;;;;;;;4934355;29;20823;-72
2023/09/10 03:00:05;;;;;;;57.83;4.43;;;;;;;;;;4934592;29;20449;-71
2023/09/10 03:02:32;;;;;;;58.47;4.10;;;;;;;;;;4934295;29;20501;-71
2023/09/10 03:04:59;;;;;;;81.73;4.03;;;;;;;;;;4934383;29;20453;-71
2023/09/10 03:07:27;;;;;;;58.47;3.83;;;;;;;;;;4933937;29;20473;-72
2023/09/10 03:09:55;;;;;;;57.20;3.57;;;;;;;;;;4934208;29;20461;-72
2023/09/10 03:12:23;;;;;;;57.60;3.17;;;;;;;;;;4952345;29;20968;-71
2023/09/10 03:14:50;;;;;;;57.77;4.43;;;;;;;;;;4945116;28;20493;-71
2023/09/10 03:17:17;;;;;;;57.60;3.60;;;;;;;;;;4952926;28;20480;-72
2023/09/10 03:19:44;;;;;;;57.20;3.47;;;;;;;;;;4953036;28;20457;-72
2023/09/10 03:22:11;;;;;;;57.87;3.73;;;;;;;;;;4953007;28;20794;-71
2023/09/10 03:24:40;;;;;;;60.63;3.70;;;;;;;;;;4952973;28;20459;-71
2023/09/10 03:27:07;;;;;;;57.60;3.40;;;;;;;;;;4952841;28;20481;-71
2023/09/10 03:29:34;;;;;;;56.93;2.70;;;;;;;;;;4953040;28;20475;-71
2023/09/10 03:32:03;;;;;;;57.97;3.83;;;;;;;;;;4952922;28;20938;-72
2023/09/10 03:34:30;;;;;;;57.80;3.80;;;;;;;;;;4952866;28;20583;-72
2023/09/10 03:36:58;;;;;;;59.13;5.00;;;;;;;;;;4952336;28;20483;-72
2023/09/10 03:39:25;;;;;;;57.10;2.80;;;;;;;;;;4952765;28;20856;-71
2023/09/10 03:41:53;;;;;;;57.20;3.03;;;;;;;;;;4953081;28;20465;-72
2023/09/10 03:44:20;;;;;;;58.23;4.07;;;;;;;;;;4952967;28;20457;-72
2023/09/10 03:46:47;;;;;;;58.20;3.27;;;;;;;;;;4952629;28;20531;-72
2023/09/10 03:49:15;;;;;;;57.77;3.63;;;;;;;;;;4952339;28;20828;-71
2023/09/10 03:51:42;;;;;;;57.57;3.20;;;;;;;;;;4952971;28;20475;-72
2023/09/10 03:54:11;;;;;;;58.37;3.87;;;;;;;;;;4952905;28;20496;-71
2023/09/10 03:56:39;;;;;;;57.90;3.33;;;;;;;;;;4952373;28;20483;-72
2023/09/10 03:59:07;;;;;;;57.17;3.20;;;;;;;;;;4955206;28;20453;-71
2023/09/10 04:01:35;;;;;;;57.67;3.10;;;;;;;;;;4956683;28;20451;-72
2023/09/10 04:04:02;;;;;;;57.80;3.37;;;;;;;;;;4956972;28;20444;-71
2023/09/10 04:06:29;;;;;;;57.07;3.20;;;;;;;;;;4956223;28;20476;-72
2023/09/10 04:08:56;;;;;;;57.40;3.53;;;;;;;;;;4956325;28;20959;-72
2023/09/10 04:11:23;;;;;;;58.80;3.63;;;;;;;;;;4956437;28;20448;-72
2023/09/10 04:13:50;;;;;;;57.30;3.03;;;;;;;;;;4956376;28;20495;-72
2023/09/10 04:16:19;;;;;;;59.93;5.47;;;;;;;;;;4955870;28;20472;-69
2023/09/10 04:18:46;;;;;;;58.87;3.93;;;;;;;;;;4956497;28;20453;-71
2023/09/10 04:21:13;;;;;;;58.33;3.40;;;;;;;;;;4956096;28;20980;-72
2023/09/10 04:23:40;;;;;;;58.33;3.90;;;;;;;;;;4956295;28;20794;-71
2023/09/10 04:26:07;;;;;;;57.10;3.23;;;;;;;;;;4946814;28;20481;-72
2023/09/10 04:28:34;;;;;;;57.50;3.30;;;;;;;;;;4945982;28;20954;-72
2023/09/10 04:31:01;;;;;;;57.47;3.57;;;;;;;;;;4944495;29;20850;-72
2023/09/10 04:33:29;;;;;;;58.07;3.43;;;;;;;;;;4948181;29;20496;-72
2023/09/10 04:35:57;;;;;;;57.57;3.37;;;;;;;;;;4947677;28;20499;-71
2023/09/10 04:38:24;;;;;;;57.20;3.00;;;;;;;;;;4945166;28;20465;-72
2023/09/10 04:40:51;;;;;;;57.80;3.70;;;;;;;;;;4936704;29;20462;-71
2023/09/10 04:43:18;;;;;;;57.90;3.70;;;;;;;;;;4936371;29;20445;-72
2023/09/10 04:45:45;;;;;;;57.20;3.00;;;;;;;;;;4936037;29;20450;-72
2023/09/10 04:48:13;;;;;;;57.50;3.40;;;;;;;;;;4936495;29;20450;-72
2023/09/10 04:50:42;;;;;;;57.60;3.50;;;;;;;;;;4937935;29;20450;-71
2023/09/10 04:53:09;;;;;;;60.80;4.17;;;;;;;;;;4944008;29;20942;-72
2023/09/10 04:55:36;;;;;;;58.73;4.50;;;;;;;;;;4936092;29;20464;-71
2023/09/10 04:58:02;;;;;;;58.23;4.53;;;;;;;;;;4936024;29;20456;-71
2023/09/10 05:00:29;;;;;;;57.50;3.30;;;;;;;;;;4947503;29;20452;-72
2023/09/10 05:02:56;;;;;;;57.37;3.40;;;;;;;;;;4955352;28;20453;-71
2023/09/10 05:05:24;;;;;;;57.23;2.83;;;;;;;;;;4954990;28;20866;-72
2023/09/10 05:07:52;;;;;;;57.13;3.10;;;;;;;;;;4954921;28;20844;-71
2023/09/10 05:10:19;;;;;;;57.43;3.80;;;;;;;;;;4955034;28;20449;-71
2023/09/10 05:12:46;;;;;;;59.90;3.90;;;;;;;;;;4955031;28;20453;-70
2023/09/10 05:15:13;;;;;;;57.40;3.40;;;;;;;;;;4954959;28;20499;-71
2023/09/10 05:17:40;;;;;;;57.10;3.23;;;;;;;;;;4954942;28;20469;-70
2023/09/10 05:20:08;;;;;;;57.30;3.43;;;;;;;;;;4954783;28;20464;-72
2023/09/10 05:22:35;;;;;;;59.00;3.60;;;;;;;;;;4954899;28;20445;-71
2023/09/10 05:25:04;;;;;;;57.70;3.80;;;;;;;;;;4955012;28;20441;-72
2023/09/10 05:27:31;;;;;;;58.20;3.47;;;;;;;;;;4954434;28;20888;-71
2023/09/10 05:29:58;;;;;;;57.67;3.90;;;;;;;;;;4954921;28;20453;-71
2023/09/10 05:32:25;;;;;;;58.90;4.97;;;;;;;;;;4954832;28;20449;-71
2023/09/10 05:34:52;;;;;;;57.70;3.90;;;;;;;;;;4954383;28;20500;-71
2023/09/10 05:37:19;;;;;;;57.83;4.50;;;;;;;;;;4954146;28;20476;-71
2023/09/10 05:39:46;;;;;;;57.50;3.30;;;;;;;;;;4954466;28;20460;-71
2023/09/10 05:42:14;;;;;;;58.40;4.43;;;;;;;;;;4954563;28;20463;-71
2023/09/10 05:44:42;;;;;;;57.53;3.83;;;;;;;;;;4954687;28;20445;-71
2023/09/10 05:47:09;;;;;;;58.10;3.63;;;;;;;;;;4953982;28;20542;-71
2023/09/10 05:49:37;;;;;;;59.67;4.30;;;;;;;;;;4954467;28;20452;-71
2023/09/10 05:52:04;;;;;;;56.90;3.10;;;;;;;;;;4954263;28;20993;-72
2023/09/10 05:54:32;;;;;;;56.90;2.80;;;;;;;;;;4954196;28;21039;-72
2023/09/10 05:56:59;;;;;;;56.67;2.70;;;;;;;;;;4953964;28;20473;-72
2023/09/10 05:59:27;;;;;;;57.20;3.07;;;;;;;;;;4954363;28;20453;-71
2023/09/10 06:01:54;;;;;;;57.50;3.07;;;;;;;;;;4954449;28;20460;-71
2023/09/10 06:04:21;;;;;;;58.50;4.50;;;;;;;;;;4954240;28;20548;-70
2023/09/10 06:06:48;;;;;;;57.83;4.00;;;;;;;;;;4953772;28;20491;-71
2023/09/10 06:09:15;;;;;;;57.10;3.13;;;;;;;;;;4954112;28;20464;-71
2023/09/10 06:11:43;;;;;;;58.37;4.30;;;;;;;;;;4953965;28;20820;-69
2023/09/10 06:14:10;;;;;;;57.80;4.67;;;;;;;;;;4953905;28;20856;-70
2023/09/10 06:16:39;;;;;;;57.00;3.00;;;;;;;;;;4953350;28;20563;-71
2023/09/10 06:19:06;;;;;;;59.10;4.43;;;;;;;;;;4953880;28;20459;-71
2023/09/10 06:21:35;;;;;;;56.77;3.37;;;;;;;;;;4953046;28;20445;-71
2023/09/10 06:24:02;;;;;;;56.70;2.80;;;;;;;;;;4953923;28;20503;-71
2023/09/10 06:26:29;;;;;;;58.27;4.90;;;;;;;;;;4949705;28;21098;-71
2023/09/10 06:28:56;;;;;;;58.17;5.20;;;;;;;;;;4939491;28;20462;-71
2023/09/10 06:31:23;;;;;;;57.47;3.97;;;;;;;;;;4938268;29;20452;-72
2023/09/10 06:33:51;;;;;;;57.33;3.20;;;;;;;;;;4942243;29;20456;-71
2023/09/10 06:36:18;;;;;;;57.10;2.80;;;;;;;;;;4934508;29;20470;-71
2023/09/10 06:38:47;;;;;;;59.13;2.83;;;;;;;;;;4939254;29;20460;-71
2023/09/10 06:41:15;;;;;;;58.33;4.27;;;;;;;;;;4953486;28;20825;-72
2023/09/10 06:43:42;;;;;;;56.97;3.00;;;;;;;;;;4953399;28;20448;-71
2023/09/10 06:46:09;;;;;;;57.10;3.73;;;;;;;;;;4952918;28;20479;-71
2023/09/10 06:48:36;;;;;;;57.80;3.47;;;;;;;;;;4953411;28;20743;-71
2023/09/10 06:51:04;;;;;;;57.47;3.53;;;;;;;;;;4953593;28;20453;-71
2023/09/10 06:53:32;;;;;;;57.13;3.30;;;;;;;;;;4953480;28;20441;-71
2023/09/10 06:55:59;;;;;;;57.27;2.87;;;;;;;;;;4953216;28;20497;-71
2023/09/10 06:58:26;;;;;;;60.17;3.73;;;;;;;;;;4953319;28;20465;-71
2023/09/10 07:00:53;;;;;;;58.50;3.67;;;;;;;;;;4953333;28;20486;-71
2023/09/10 07:03:20;;;;;;;57.63;2.70;;;;;;;;;;4953290;28;21008;-71
2023/09/10 07:05:47;;;;;;;56.83;2.90;;;;;;;;;;4953077;28;20445;-71
2023/09/10 07:08:16;;;;;;;57.10;3.27;;;;;;;;;;4953347;28;20463;-71
2023/09/10 07:10:43;;;;;;;57.50;2.90;;;;;;;;;;4953525;28;20448;-71
2023/09/10 07:13:10;;;;;;;57.27;3.60;;;;;;;;;;4953480;28;20459;-71
2023/09/10 07:15:37;;;;;;;58.77;2.57;;;;;;;;;;4953095;28;20487;-71
2023/09/10 07:18:04;;;;;;;57.87;3.23;;;;;;;;;;4953529;28;20968;-72
2023/09/10 07:20:32;;;;;;;57.17;3.43;;;;;;;;;;4954115;28;20457;-71
2023/09/10 07:22:59;;;;;;;58.37;4.00;;;;;;;;;;4953647;28;20803;-71
2023/09/10 07:25:27;;;;;;;57.97;3.33;;;;;;;;;;4953124;28;20465;-71
2023/09/10 07:27:54;;;;;;;59.83;4.07;;;;;;;;;;4952919;28;20977;-71
2023/09/10 07:30:21;;;;;;;59.27;4.50;;;;;;;;;;4953368;28;20453;-71
2023/09/10 07:32:48;;;;;;;58.20;4.20;;;;;;;;;;4954172;28;20457;-72
2023/09/10 07:35:16;;;;;;;57.00;2.83;;;;;;;;;;4957253;28;20619;-71
2023/09/10 07:37:43;;;;;;;58.50;3.90;;;;;;;;;;4957285;28;20515;-71
2023/09/10 07:40:11;;;;;;;57.60;3.63;;;;;;;;;;4957497;28;20459;-72
2023/09/10 07:42:39;;;;;;;57.67;3.80;;;;;;;;;;4937885;29;20930;-72
2023/09/10 07:45:13;;;;;;;56.87;2.67;;;;;;;;;;4937985;29;20453;-70
2023/09/10 07:47:41;;;;;;;57.67;3.73;;;;;;;;;;4949625;29;20463;-72
2023/09/10 07:50:08;;;;;;;57.00;3.63;;;;;;;;;;4957398;28;20451;-71
2023/09/10 07:52:36;;;;;;;57.67;3.97;;;;;;;;;;4956927;28;20942;-71
2023/09/10 07:55:03;;;;;;;59.43;5.27;;;;;;;;;;4956989;28;20495;-72
2023/09/10 07:57:30;;;;;;;62.30;4.00;;;;;;;;;;4956452;28;21043;-72
2023/09/10 07:59:58;;;;;;;56.67;2.70;;;;;;;;;;4956948;28;20471;-72
2023/09/10 08:02:27;;;;;;;56.70;3.03;;;;;;;;;;4956801;28;20891;-72
2023/09/10 08:04:54;;;;;;;57.47;3.60;;;;;;;;;;4957027;28;20949;-71
2023/09/10 08:07:21;;;;;;;59.10;3.40;;;;;;;;;;4956514;28;20472;-72
2023/09/10 08:09:48;;;;;;;57.37;3.50;;;;;;;;;;4956709;28;20453;-70
2023/09/10 08:12:16;;;;;;;56.60;2.90;;;;;;;;;;4956720;28;20449;-70
2023/09/10 08:14:43;;;;;;;56.47;2.60;;;;;;;;;;4956303;28;20495;-70
2023/09/10 08:17:11;;;;;;;56.90;2.83;;;;;;;;;;4956246;28;20826;-70
2023/09/10 08:19:38;;;;;;;57.00;2.97;;;;;;;;;;4956771;28;20461;-69
2023/09/10 08:22:05;;;;;;;56.83;3.50;;;;;;;;;;4956480;28;20456;-71
2023/09/10 08:24:32;;;;;;;57.67;3.67;;;;;;;;;;4956638;28;20453;-70
2023/09/10 08:27:02;;;;;;;57.37;3.37;;;;;;;;;;4947613;28;20488;-71
2023/09/10 08:29:30;;;;;;;57.00;2.97;;;;;;;;;;4946484;28;20547;-70
2023/09/10 08:31:57;;;;;;;57.67;3.60;;;;;;;;;;4940280;29;20469;-70
2023/09/10 08:34:25;;;;;;;57.17;3.00;;;;;;;;;;4946979;28;20527;-71
2023/09/10 08:36:53;;;;;;;57.33;3.37;;;;;;;;;;4937280;29;20890;-70
2023/09/10 08:39:20;;;;;;;57.20;4.77;;;;;;;;;;4946223;29;20474;-71
2023/09/10 08:41:50;;;;;;;57.97;2.73;;;;;;;;;;4953145;28;20460;-71
2023/09/10 08:44:19;;;;;;;57.67;3.40;;;;;;;;;;4945699;28;20465;-72
2023/09/10 08:46:51;;;;;;;56.23;2.50;;;;;;;;;;4937743;29;20474;-70
2023/09/10 08:49:19;;;;;;;56.83;2.97;;;;;;;;;;4954107;29;20456;-71
2023/09/10 08:51:48;;;;;;;57.73;3.20;;;;;;;;;;4949505;28;20453;-72
2023/09/10 08:54:15;;;;;;;56.87;2.60;;;;;;;;;;4941445;28;20449;-72
2023/09/10 08:56:43;;;;;;;57.53;3.53;;;;;;;;;;4938108;29;20503;-72
2023/09/10 08:59:12;;;;;;;57.53;3.27;;;;;;;;;;4938533;29;20456;-72
2023/09/10 09:01:39;;;;;;;57.97;4.07;;;;;;;;;;4938153;29;20458;-72
2023/09/10 09:04:06;;;;;;;57.87;3.87;;;;;;;;;;4937935;29;20453;-72
2023/09/10 09:06:34;;;;;;;56.90;3.47;;;;;;;;;;4938105;29;20481;-71
2023/09/10 09:09:05;;;;;;;57.43;3.07;;;;;;;;;;4938219;29;20454;-72
2023/09/10 09:11:35;;;;;;;57.10;3.63;;;;;;;;;;4956452;29;20461;-72
2023/09/10 09:14:03;;;;;;;57.90;3.97;;;;;;;;;;4958149;28;20511;-72
2023/09/10 09:16:30;;;;;;;57.00;3.50;;;;;;;;;;4957771;28;20525;-72
2023/09/10 09:18:57;;;;;;;58.07;4.00;;;;;;;;;;4957287;28;20452;-71
2023/09/10 09:21:25;;;;;;;57.67;3.27;;;;;;;;;;4957579;28;20463;-72
2023/09/10 09:23:53;;;;;;;58.47;3.80;;;;;;;;;;4957400;28;20452;-72
2023/09/10 09:26:22;;;;;;;57.10;2.80;;;;;;;;;;4957316;28;20477;-72
2023/09/10 09:28:50;;;;;;;57.20;3.33;;;;;;;;;;4957799;28;20459;-71
2023/09/10 09:31:21;;;;;;;57.80;4.27;;;;;;;;;;4957414;28;20460;-72
2023/09/10 09:33:48;;;;;;;56.90;2.70;;;;;;;;;;4957464;28;20448;-72
2023/09/10 09:36:15;;;;;;;59.63;3.57;;;;;;;;;;4957441;28;20500;-72
2023/09/10 09:38:43;;;;;;;56.57;2.87;;;;;;;;;;4957303;28;20568;-72
2023/09/10 09:41:10;;;;;;;56.90;2.70;;;;;;;;;;4957337;28;20453;-72
2023/09/10 09:43:39;;;;;;;57.53;2.77;;;;;;;;;;4957040;28;20475;-72
2023/09/10 09:46:06;;;;;;;57.27;3.17;;;;;;;;;;4956968;28;21064;-72
2023/09/10 09:48:34;;;;;;;58.30;3.33;;;;;;;;;;4957482;28;20445;-72
2023/09/10 09:51:03;;;;;;;58.00;3.20;;;;;;;;;;4957229;28;20452;-73
2023/09/10 09:53:31;;;;;;;56.90;3.10;;;;;;;;;;4957470;28;20495;-72
2023/09/10 09:55:59;;;;;;;56.57;2.40;;;;;;;;;;4955867;28;20564;-72
2023/09/10 09:58:26;;;;;;;57.00;3.00;;;;;;;;;;4957855;28;20460;-72
2023/09/10 10:00:54;;;;;;;56.73;2.90;;;;;;;;;;4957446;28;20448;-73
2023/09/10 10:03:21;;;;;;;56.27;2.80;;;;;;;;;;4957359;28;20479;-70
2023/09/10 10:05:50;;;;;;;56.70;3.13;;;;;;;;;;4949238;28;20455;-69
2023/09/10 10:08:17;;;;;;;56.37;2.93;;;;;;;;;;4957025;28;20484;-72
2023/09/10 10:10:47;;;;;;;55.90;2.63;;;;;;;;;;4956555;28;20452;-72
2023/09/10 10:13:15;;;;;;;58.27;3.20;;;;;;;;;;4956568;28;20453;-73
2023/09/10 10:15:43;;;;;;;55.10;2.10;;;;;;;;;;4955105;28;20848;-70
2023/09/10 10:18:11;;;;;;;55.50;2.80;;;;;;;;;;4955019;28;20456;-70
2023/09/10 10:20:40;;;;;;;55.87;3.00;;;;;;;;;;4955018;28;20457;-71
2023/09/10 10:23:08;;;;;;;55.67;2.70;;;;;;;;;;4954827;28;20455;-70
2023/09/10 10:25:36;;;;;;;55.30;2.73;;;;;;;;;;4952115;28;20453;-71
2023/09/10 10:28:07;;;;;;;55.53;3.10;;;;;;;;;;4949571;29;20453;-71
2023/09/10 10:30:35;;;;;;;55.50;2.83;;;;;;;;;;4945044;28;20943;-72
2023/09/10 10:33:04;;;;;;;55.37;3.27;;;;;;;;;;4936149;29;20445;-71
2023/09/10 10:35:35;;;;;;;54.90;2.17;;;;;;;;;;4951352;29;20489;-72
2023/09/10 10:38:05;;;;;;;55.67;3.43;;;;;;;;;;4941095;29;20461;-72
2023/09/10 10:40:32;;;;;;;56.80;3.90;;;;;;;;;;4945324;28;20513;-72
2023/09/10 10:43:03;;;;;;;55.13;3.00;;;;;;;;;;4935556;29;20449;-72
2023/09/10 10:45:32;;;;;;;55.37;2.80;;;;;;;;;;4952234;29;20476;-72
2023/09/10 10:48:01;;;;;;;56.70;2.70;;;;;;;;;;4954842;28;20455;-71
2023/09/10 10:50:29;;;;;;;55.37;2.67;;;;;;;;;;4955421;28;20459;-72
2023/09/10 10:53:00;;;;;;;54.80;2.20;;;;;;;;;;4954659;28;20540;-72
2023/09/10 10:55:27;;;;;;;55.20;2.60;;;;;;;;;;4954162;28;20495;-72
2023/09/10 10:57:55;;;;;;;55.07;2.57;;;;;;;;;;4954234;28;20499;-72
2023/09/10 11:00:22;;;;;;;55.30;2.67;;;;;;;;;;4954333;28;20456;-72
2023/09/10 11:02:50;;;;;;;55.20;2.90;;;;;;;;;;4955108;28;20457;-71
2023/09/10 11:05:17;;;;;;;54.97;3.03;;;;;;;;;;4954923;28;20870;-70
2023/09/10 11:07:45;;;;;;;55.10;3.17;;;;;;;;;;4954593;28;20460;-71
2023/09/10 11:10:30;;;;;;;54.90;2.80;;;;;;;;;;4954863;28;20460;-71
2023/09/10 11:13:08;;;;;;;55.07;3.17;;;;;;;;;;4954751;28;20491;-72
2023/09/10 11:15:35;;;;;;;54.00;2.47;;;;;;;;;;4954573;28;20502;-71
2023/09/10 11:18:21;;;;;;;55.60;3.03;;;;;;;;;;4954571;28;20452;-71
2023/09/10 11:20:51;;;;;;;54.57;2.43;;;;;;;;;;4954607;28;20455;-71
2023/09/10 11:23:18;;;;;;;55.30;2.83;;;;;;;;;;4954781;28;20451;-71
2023/09/10 11:25:47;;;;;;;56.17;3.00;;;;;;;;;;4953758;28;20953;-72
2023/09/10 11:28:33;;;;;;;54.67;2.93;;;;;;;;;;4954131;28;20492;-71
2023/09/10 11:31:04;;;;;;;55.13;2.60;;;;;;;;;;4953213;28;20963;-70
2023/09/10 11:33:33;;;;;;;54.87;2.87;;;;;;;;;;4953210;28;20459;-73
2023/09/10 11:36:00;;;;;;;54.37;2.43;;;;;;;;;;4952781;28;20492;-72
2023/09/10 11:38:31;;;;;;;53.93;1.87;;;;;;;;;;4953093;28;20469;-71
2023/09/10 11:40:59;;;;;;;55.00;2.60;;;;;;;;;;4952986;28;20460;-69
2023/09/10 11:43:29;;;;;;;55.10;3.10;;;;;;;;;;4953012;28;20453;-71
2023/09/10 11:45:57;;;;;;;54.57;2.57;;;;;;;;;;4945434;28;20480;-72
2023/09/10 11:48:25;;;;;;;56.07;3.80;;;;;;;;;;4953474;28;20460;-71
2023/09/10 11:50:52;;;;;;;54.90;2.80;;;;;;;;;;4953453;28;20459;-69
2023/09/10 11:53:21;;;;;;;54.60;2.77;;;;;;;;;;4953122;28;20452;-71
2023/09/10 11:55:49;;;;;;;55.83;2.53;;;;;;;;;;4952142;28;21024;-71
2023/09/10 11:58:16;;;;;;;54.60;2.97;;;;;;;;;;4952687;28;20763;-71
2023/09/10 12:00:44;;;;;;;54.40;2.70;;;;;;;;;;4952954;28;20461;-71
2023/09/10 12:03:12;;;;;;;54.77;2.60;;;;;;;;;;4952871;28;20452;-71
2023/09/10 12:05:42;;;;;;;54.30;3.10;;;;;;;;;;4952662;28;20448;-71
2023/09/10 12:08:09;;;;;;;53.60;2.37;;;;;;;;;;4952631;28;20455;-72
2023/09/10 12:10:36;;;;;;;54.00;2.37;;;;;;;;;;4952766;28;20463;-72
2023/09/10 12:13:04;;;;;;;54.60;2.80;;;;;;;;;;4952666;28;20456;-71
2023/09/10 12:15:33;;;;;;;55.33;2.93;;;;;;;;;;4952320;28;20452;-70
2023/09/10 12:18:04;;;;;;;54.47;2.70;;;;;;;;;;4953229;28;20825;-71
2023/09/10 12:20:32;;;;;;;54.27;2.60;;;;;;;;;;4955515;28;20775;-71
2023/09/10 12:23:01;;;;;;;53.60;2.83;;;;;;;;;;4956112;28;20464;-71
2023/09/10 12:25:28;;;;;;;55.37;3.47;;;;;;;;;;4955272;28;20456;-71
2023/09/10 12:27:55;;;;;;;53.60;2.70;;;;;;;;;;4944872;29;20478;-70
2023/09/10 12:30:24;;;;;;;54.10;2.90;;;;;;;;;;4940694;28;20465;-71
2023/09/10 12:32:51;;;;;;;54.07;2.27;;;;;;;;;;4952735;29;20458;-71
2023/09/10 12:35:18;;;;;;;54.47;2.40;;;;;;;;;;4944446;29;20450;-71
2023/09/10 12:37:49;;;;;;;55.60;3.27;;;;;;;;;;4936085;29;20524;-71
2023/09/10 12:40:17;;;;;;;54.57;3.23;;;;;;;;;;4936684;29;20976;-71
2023/09/10 12:42:45;;;;;;;54.70;2.80;;;;;;;;;;4936348;29;20453;-72
2023/09/10 12:45:12;;;;;;;54.33;2.77;;;;;;;;;;4936651;29;20505;-71
2023/09/10 12:47:39;;;;;;;53.83;2.50;;;;;;;;;;4949596;29;20472;-71
2023/09/10 12:50:07;;;;;;;54.00;2.30;;;;;;;;;;4936465;29;20453;-71
2023/09/10 12:52:34;;;;;;;54.97;3.27;;;;;;;;;;4936156;29;20457;-70
2023/09/10 12:55:02;;;;;;;53.70;2.93;;;;;;;;;;4936209;29;20816;-71
2023/09/10 12:57:32;;;;;;;54.43;3.33;;;;;;;;;;4935891;29;20500;-71
2023/09/10 12:59:59;;;;;;;53.73;2.80;;;;;;;;;;4936285;29;20449;-71
2023/09/10 13:02:26;;;;;;;53.80;3.27;;;;;;;;;;4936109;29;20454;-71
2023/09/10 13:04:55;;;;;;;54.80;3.03;;;;;;;;;;4947114;29;20998;-71
2023/09/10 13:07:22;;;;;;;53.90;2.33;;;;;;;;;;4954691;28;20519;-70
2023/09/10 13:09:49;;;;;;;53.67;2.60;;;;;;;;;;4954787;28;20452;-71
2023/09/10 13:12:16;;;;;;;54.17;3.00;;;;;;;;;;4955195;28;20822;-71
2023/09/10 13:14:45;;;;;;;55.10;3.13;;;;;;;;;;4955105;28;20450;-71
2023/09/10 13:17:12;;;;;;;54.53;2.57;;;;;;;;;;4954577;28;20501;-69
2023/09/10 13:19:39;;;;;;;54.10;2.90;;;;;;;;;;4954620;28;20976;-71
2023/09/10 13:22:08;;;;;;;54.10;3.20;;;;;;;;;;4954714;28;20477;-71
2023/09/10 13:24:35;;;;;;;54.13;3.10;;;;;;;;;;4954923;28;20465;-69
2023/09/10 13:27:02;;;;;;;54.40;3.30;;;;;;;;;;4954681;28;20558;-71
2023/09/10 13:29:29;;;;;;;54.97;3.03;;;;;;;;;;4954633;28;20460;-70
2023/09/10 13:31:58;;;;;;;54.10;2.40;;;;;;;;;;4953539;28;20846;-70
2023/09/10 13:34:26;;;;;;;54.00;2.90;;;;;;;;;;4954785;28;20467;-72
2023/09/10 13:36:53;;;;;;;54.17;2.87;;;;;;;;;;4953812;28;20957;-72
2023/09/10 13:39:20;;;;;;;53.33;2.70;;;;;;;;;;4954407;28;20468;-71
2023/09/10 13:41:47;;;;;;;54.00;2.37;;;;;;;;;;4954559;28;20449;-71
2023/09/10 13:44:14;;;;;;;53.80;2.40;;;;;;;;;;4954501;28;20461;-71
2023/09/10 13:46:41;;;;;;;56.20;3.33;;;;;;;;;;4953995;28;20476;-71
2023/09/10 13:49:10;;;;;;;54.00;2.40;;;;;;;;;;4954391;28;20451;-72
2023/09/10 13:51:37;;;;;;;53.97;2.67;;;;;;;;;;4954044;28;20445;-70
2023/09/10 13:54:04;;;;;;;53.60;2.47;;;;;;;;;;4954338;28;20453;-71
2023/09/10 13:56:32;;;;;;;53.67;2.70;;;;;;;;;;4953466;28;21008;-71
2023/09/10 13:59:00;;;;;;;55.17;3.90;;;;;;;;;;4954216;28;20452;-71
2023/09/10 14:01:27;;;;;;;53.40;2.57;;;;;;;;;;4954172;28;20520;-71
2023/09/10 14:03:54;;;;;;;54.47;2.70;;;;;;;;;;4953950;28;20455;-70
2023/09/10 14:06:22;;;;;;;54.30;3.10;;;;;;;;;;4953540;28;20479;-71
2023/09/10 14:08:49;;;;;;;54.30;2.40;;;;;;;;;;4954391;28;20449;-70
2023/09/10 14:11:16;;;;;;;54.17;2.50;;;;;;;;;;4953899;28;20463;-70
2023/09/10 14:13:44;;;;;;;55.23;2.80;;;;;;;;;;4953840;28;20445;-70
2023/09/10 14:16:11;;;;;;;54.20;2.70;;;;;;;;;;4953274;28;20471;-71
2023/09/10 14:18:40;;;;;;;54.53;2.70;;;;;;;;;;4953586;28;20814;-71
2023/09/10 14:21:08;;;;;;;54.20;2.67;;;;;;;;;;4953933;28;20453;-71
2023/09/10 14:23:37;;;;;;;54.00;2.40;;;;;;;;;;4953709;28;20461;-71
2023/09/10 14:26:04;;;;;;;54.67;2.27;;;;;;;;;;4952689;28;20480;-70
2023/09/10 14:28:31;;;;;;;54.40;2.57;;;;;;;;;;4940657;28;20458;-71
2023/09/10 14:30:58;;;;;;;55.60;2.70;;;;;;;;;;4942363;29;20446;-72
2023/09/10 14:33:28;;;;;;;54.67;3.23;;;;;;;;;;4942328;29;20450;-71
2023/09/10 14:35:57;;;;;;;55.27;3.27;;;;;;;;;;4952715;29;20485;-71
2023/09/10 14:38:24;;;;;;;54.70;2.40;;;;;;;;;;4953425;28;20493;-71